createdAt,value
2022-11-20T00:03:17.281Z,-1.00
2022-11-20T00:08:20.766Z,-1.00
2022-11-20T00:13:24.234Z,-1.00
2022-11-20T00:18:28.555Z,-1.00
2022-11-20T00:23:32.774Z,-1.00
2022-11-20T00:28:36.656Z,-1.00
2022-11-20T00:33:40.105Z,-1.00
2022-11-20T00:38:44.093Z,-1.00
2022-11-20T00:43:47.289Z,-1.00
2022-11-20T00:48:50.962Z,-1.00
2022-11-20T00:53:57.213Z,-1.00
2022-11-20T00:59:02.841Z,-0.90
2022-11-20T01:04:06.693Z,-1.00
2022-11-20T01:09:13.835Z,-1.00
2022-11-20T01:14:20.249Z,-1.00
2022-11-20T01:19:25.836Z,-0.90
2022-11-20T01:24:29.504Z,-1.00
2022-11-20T01:29:32.943Z,-1.00
2022-11-20T01:34:36.352Z,-1.00
2022-11-20T01:39:39.814Z,-1.00
2022-11-20T01:45:01.252Z,-0.90
2022-11-20T01:50:24.433Z,-0.90
2022-11-20T01:55:34.131Z,-1.00
2022-11-20T02:00:37.694Z,-1.00
2022-11-20T02:06:19.824Z,-1.00
2022-11-20T02:11:23.645Z,-1.00
2022-11-20T02:16:37.483Z,-0.90
2022-11-20T02:22:15.953Z,-1.00
2022-11-20T02:27:20.294Z,-1.00
2022-11-20T02:32:27.710Z,-0.90
2022-11-20T02:37:35.775Z,-1.00
2022-11-20T02:42:39.321Z,-0.90
2022-11-20T02:47:42.773Z,-0.90
2022-11-20T02:52:46.177Z,-0.90
2022-11-20T02:57:49.735Z,-0.90
2022-11-20T03:02:53.302Z,-0.90
2022-11-20T03:07:56.746Z,-0.90
2022-11-20T03:13:00.254Z,-0.90
2022-11-20T03:18:03.614Z,-1.00
2022-11-20T03:23:07.082Z,-1.00
2022-11-20T03:28:10.753Z,-1.00
2022-11-20T03:33:14.311Z,-1.00
2022-11-20T03:38:17.808Z,-1.00
2022-11-20T03:43:21.276Z,-1.00
2022-11-20T03:48:25.034Z,-1.00
2022-11-20T03:53:28.719Z,-1.00
2022-11-20T03:58:32.186Z,-1.00
2022-11-20T04:03:36.804Z,-1.00
2022-11-20T04:08:40.507Z,-1.00
2022-11-20T04:13:47.295Z,-1.10
2022-11-20T04:18:55.665Z,-1.10
2022-11-20T04:23:59.565Z,-1.10
2022-11-20T04:29:05.679Z,-1.10
2022-11-20T04:34:09.422Z,-1.10
2022-11-20T04:39:17.643Z,-1.10
2022-11-20T04:44:21.074Z,-1.10
2022-11-20T04:49:24.908Z,-1.10
2022-11-20T04:54:28.694Z,-1.10
2022-11-20T04:59:32.068Z,-1.10
2022-11-20T05:04:52.761Z,-1.00
2022-11-20T05:09:56.275Z,-1.10
2022-11-20T05:15:00.097Z,-1.10
2022-11-20T05:20:03.380Z,-1.10
2022-11-20T05:25:07.192Z,-1.10
2022-11-20T05:30:11.473Z,-1.10
2022-11-20T05:35:14.900Z,-1.10
2022-11-20T05:40:18.359Z,-1.10
2022-11-20T05:45:21.623Z,-1.10
2022-11-20T05:50:24.730Z,-1.10
2022-11-20T05:55:29.202Z,-1.10
2022-11-20T06:00:33.238Z,-1.10
2022-11-20T06:05:36.353Z,-1.10
2022-11-20T06:10:39.324Z,-1.10
2022-11-20T06:15:42.733Z,-1.10
2022-11-20T06:20:47.258Z,-1.10
2022-11-20T06:25:50.751Z,-1.10
2022-11-20T06:30:54.652Z,-1.10
2022-11-20T06:36:10.124Z,-1.10
2022-11-20T06:41:16.865Z,-1.10
2022-11-20T06:46:21.217Z,-1.10
2022-11-20T06:51:24.622Z,-1.10
2022-11-20T06:56:28.771Z,-1.00
2022-11-20T07:01:32.132Z,-1.10
2022-11-20T07:06:35.542Z,-1.00
2022-11-20T07:11:39.141Z,-1.00
2022-11-20T07:16:42.592Z,-1.00
2022-11-20T07:21:45.653Z,-1.00
2022-11-20T07:26:50.824Z,-0.90
2022-11-20T07:31:57.095Z,-0.90
2022-11-20T07:37:03.806Z,-0.90
2022-11-20T07:42:09.600Z,-0.90
2022-11-20T07:47:12.791Z,-0.80
2022-11-20T07:52:16.345Z,-0.70
2022-11-20T07:57:22.123Z,-0.70
2022-11-20T08:02:27.724Z,-0.70
2022-11-20T08:07:31.246Z,-0.70
2022-11-20T08:12:53.917Z,-0.70
2022-11-20T08:18:30.538Z,-0.60
2022-11-20T08:23:35.332Z,-0.50
2022-11-20T08:28:38.793Z,-0.50
2022-11-20T08:33:41.940Z,-0.50
2022-11-20T08:38:49.573Z,-0.40
2022-11-20T08:43:58.423Z,-0.30
2022-11-20T08:49:01.657Z,-0.20
2022-11-20T08:54:09.116Z,-0.10
2022-11-20T08:59:27.320Z,0.00
2022-11-20T09:05:20.483Z,0.00
2022-11-20T09:10:24.876Z,0.00
2022-11-20T09:15:29.114Z,0.00
2022-11-20T09:20:47.213Z,-0.10
2022-11-20T09:26:13.564Z,0.00
2022-11-20T09:37:19.042Z,0.20
2022-11-20T09:43:02.779Z,0.20
2022-11-20T09:48:35.783Z,0.10
2022-11-20T09:53:58.796Z,0.20
2022-11-20T09:59:06.733Z,0.30
2022-11-20T10:04:12.622Z,0.40
2022-11-20T10:09:54.170Z,0.40
2022-11-20T10:15:12.578Z,0.30
2022-11-20T10:20:31.644Z,0.20
2022-11-20T10:25:46.568Z,0.20
2022-11-20T10:30:58.671Z,0.30
2022-11-20T10:36:23.472Z,0.40
2022-11-20T10:41:41.931Z,0.60
2022-11-20T10:46:47.082Z,0.50
2022-11-20T10:52:04.614Z,0.40
2022-11-20T10:57:22.485Z,0.40
2022-11-20T11:02:35.124Z,0.30
2022-11-20T11:07:41.727Z,0.30
2022-11-20T11:12:50.144Z,0.30
2022-11-20T11:17:53.842Z,0.20
2022-11-20T11:23:01.754Z,0.30
2022-11-20T11:28:06.605Z,0.30
2022-11-20T11:33:30.693Z,0.40
2022-11-20T11:38:44.831Z,0.30
2022-11-20T11:44:16.771Z,0.30
2022-11-20T11:49:22.427Z,0.20
2022-11-20T11:54:33.211Z,0.20
2022-11-20T11:59:56.244Z,0.10
2022-11-20T12:05:06.650Z,0.10
2022-11-20T12:10:44.643Z,0.20
2022-11-20T12:15:50.261Z,0.20
2022-11-20T12:21:24.785Z,0.20
2022-11-20T12:26:47.675Z,0.30
2022-11-20T12:32:07.392Z,0.50
2022-11-20T12:37:26.673Z,0.50
2022-11-20T12:43:03.857Z,0.60
2022-11-20T12:48:46.603Z,0.60
2022-11-20T12:54:29.735Z,0.70
2022-11-20T13:00:04.626Z,0.70
2022-11-20T13:05:22.141Z,0.70
2022-11-20T13:10:37.751Z,0.80
2022-11-20T13:15:53.974Z,0.80
2022-11-20T13:20:58.373Z,0.80
2022-11-20T13:26:27.803Z,0.70
2022-11-20T13:31:42.332Z,0.70
2022-11-20T13:36:55.597Z,0.60
2022-11-20T13:42:02.625Z,0.60
2022-11-20T13:47:26.638Z,0.60
2022-11-20T13:52:49.672Z,0.60
2022-11-20T13:58:25.651Z,0.50
2022-11-20T14:04:05.531Z,0.50
2022-11-20T14:09:02.184Z,0.40
2022-11-20T14:14:20.638Z,0.40
2022-11-20T14:19:33.313Z,0.30
2022-11-20T14:24:39.574Z,0.30
2022-11-20T14:29:46.002Z,0.30
2022-11-20T14:34:52.985Z,0.30
2022-11-20T14:40:00.557Z,0.20
2022-11-20T14:45:06.343Z,0.20
2022-11-20T14:50:27.975Z,0.20
2022-11-20T14:55:43.711Z,0.20
2022-11-20T15:01:09.573Z,0.20
2022-11-20T15:06:20.631Z,0.10
2022-11-20T15:11:32.025Z,0.10
2022-11-20T15:16:36.115Z,0.10
2022-11-20T15:21:40.258Z,0.10
2022-11-20T15:26:46.833Z,0.10
2022-11-20T15:31:55.698Z,0.00
2022-11-20T15:37:02.011Z,0.00
2022-11-20T15:42:09.022Z,-0.10
2022-11-20T15:47:13.800Z,-0.10
2022-11-20T15:52:18.509Z,-0.10
2022-11-20T15:57:23.044Z,-0.20
2022-11-20T16:02:28.462Z,-0.10
2022-11-20T16:07:34.232Z,-0.10
2022-11-20T16:12:57.683Z,-0.20
2022-11-20T16:18:04.681Z,-0.20
2022-11-20T16:23:09.666Z,-0.20
2022-11-20T16:28:18.641Z,-0.20
2022-11-20T16:33:24.034Z,-0.20
2022-11-20T16:38:29.672Z,-0.20
2022-11-20T16:43:35.508Z,-0.20
2022-11-20T16:48:40.513Z,-0.20
2022-11-20T16:53:44.982Z,-0.30
2022-11-20T16:58:50.913Z,-0.30
2022-11-20T17:04:04.834Z,-0.30
2022-11-20T17:09:12.623Z,-0.20
2022-11-20T17:14:17.252Z,-0.20
2022-11-20T17:19:22.633Z,-0.20
2022-11-20T17:24:31.613Z,-0.30
2022-11-20T17:29:42.228Z,-0.30
2022-11-20T17:34:47.699Z,-0.30
2022-11-20T17:39:52.343Z,-0.30
2022-11-20T17:45:00.103Z,-0.30
2022-11-20T17:50:05.858Z,-0.40
2022-11-20T17:55:11.814Z,-0.40
2022-11-20T18:00:18.153Z,-0.40
2022-11-20T18:05:22.123Z,-0.40
2022-11-20T18:10:26.592Z,-0.40
2022-11-20T18:15:36.754Z,-0.40
2022-11-20T18:20:40.859Z,-0.40
2022-11-20T18:25:48.802Z,-0.40
2022-11-20T18:30:53.263Z,-0.40
2022-11-20T18:35:56.972Z,-0.50
2022-11-20T18:41:03.650Z,-0.50
2022-11-20T18:46:11.613Z,-0.60
2022-11-20T18:51:19.940Z,-0.60
2022-11-20T18:56:24.440Z,-0.60
2022-11-20T19:01:30.912Z,-0.60
2022-11-20T19:06:40.310Z,-0.60
2022-11-20T19:11:45.202Z,-0.60
2022-11-20T19:16:50.542Z,-0.60
2022-11-20T19:21:54.563Z,-0.60
2022-11-20T19:27:02.246Z,-0.50
2022-11-20T19:32:11.335Z,-0.50
2022-11-20T19:37:18.280Z,-0.50
2022-11-20T19:42:25.774Z,-0.50
2022-11-20T19:48:06.112Z,-0.50
2022-11-20T19:53:01.914Z,-0.40
2022-11-20T19:58:07.749Z,-0.40
2022-11-20T20:03:14.713Z,-0.40
2022-11-20T20:08:21.064Z,-0.40
2022-11-20T20:13:30.163Z,-0.50
2022-11-20T20:18:34.721Z,-0.50
2022-11-20T20:23:39.581Z,-0.40
2022-11-20T20:28:44.932Z,-0.50
2022-11-20T20:33:49.571Z,-0.50
2022-11-20T20:38:55.797Z,-0.50
2022-11-20T20:44:18.706Z,-0.40
2022-11-20T20:49:24.427Z,-0.40
2022-11-20T20:54:34.477Z,-0.40
2022-11-20T20:59:50.703Z,-0.40
2022-11-20T21:04:56.962Z,-0.50
2022-11-20T21:10:01.222Z,-0.50
2022-11-20T21:15:05.619Z,-0.50
2022-11-20T21:20:30.206Z,-0.50
2022-11-20T21:25:39.233Z,-0.40
2022-11-20T21:30:43.534Z,-0.50
2022-11-20T21:35:49.193Z,-0.50
2022-11-20T21:40:53.563Z,-0.60
2022-11-20T21:46:06.524Z,-0.60
2022-11-20T21:51:21.797Z,-0.60
2022-11-20T21:56:26.753Z,-0.60
2022-11-20T22:01:32.098Z,-0.60
2022-11-20T22:06:35.703Z,-0.60
2022-11-20T22:11:39.334Z,-0.70
2022-11-20T22:16:42.887Z,-0.70
2022-11-20T22:21:46.933Z,-0.80
2022-11-20T22:26:50.202Z,-0.90
2022-11-20T22:31:54.070Z,-1.00
2022-11-20T22:36:57.144Z,-1.10
2022-11-20T22:42:00.553Z,-1.10
2022-11-20T22:47:08.695Z,-1.00
2022-11-20T22:52:14.242Z,-1.00
2022-11-20T22:57:17.683Z,-1.00
2022-11-20T23:02:20.733Z,-0.90
2022-11-20T23:07:24.152Z,-0.90
2022-11-20T23:12:27.623Z,-1.00
2022-11-20T23:17:31.322Z,-1.00
2022-11-20T23:22:34.464Z,-1.10
2022-11-20T23:27:37.910Z,-1.20
2022-11-20T23:32:41.332Z,-1.40
2022-11-20T23:37:47.252Z,-1.50
2022-11-20T23:43:08.841Z,-1.60
2022-11-20T23:48:12.875Z,-1.60
2022-11-20T23:53:17.073Z,-1.60
2022-11-20T23:58:22.114Z,-1.60
